Time;durP1;ratioP1;P1;durP2;ratioP2;P2;SDS_P1;SDS_P2;PMS_P1;PMS_P2;Temp;Humidity;BMP_temperature;BMP_pressure;BME280_temperature;BME280_humidity;BME280_pressure;Samples;Min_cycle;Max_cycle;Signal;HPM_P1;HPM_P2
2022/05/18 00:00:27;;;;;;;;;;;;;;;12.41;100.00;96375.03;1027167;28;20420;-70
2022/05/18 00:00:58;;;;;;;;;;;;;;;12.43;100.00;96375.56;1031263;28;19913;-68
2022/05/18 00:01:28;;;;;;;;;;;;;;;12.41;100.00;96375.84;1034687;28;19921;-70
2022/05/18 00:02:00;;;;;;;;;;;;;;;12.42;100.00;96380.03;1039943;28;20402;-70
2022/05/18 00:02:30;;;;;;;;;;;;;;;12.40;100.00;96376.06;1042664;28;19913;-70
2022/05/18 00:03:05;;;;;;;;;;;;;;;12.39;100.00;96377.91;1036533;28;19917;-71
2022/05/18 00:03:36;;;;;;;;;;;;;;;12.37;100.00;96377.38;1039332;28;19917;-72
2022/05/18 00:04:06;;;;;;;;;;;;;;;12.38;100.00;96376.34;1035262;28;19909;-70
2022/05/18 00:04:36;;;;;;;;;;;;;;;12.42;100.00;96380.03;1035800;28;19987;-71
2022/05/18 00:05:07;;;;;;;;;;;;;;;12.41;100.00;96375.84;1039411;28;19928;-70
2022/05/18 00:05:38;;;;;;;;;;;;;;;12.46;100.00;96377.69;1035313;28;20461;-68
2022/05/18 00:06:11;;;;;;;;;;;;;;;12.44;100.00;96379.75;1039469;28;19920;-70
2022/05/18 00:06:42;;;;;;;;;;;;;;;12.43;100.00;96378.19;1039341;28;20473;-69
2022/05/18 00:07:12;;;;;;;;;;;;;;;12.42;100.00;96377.41;1039580;28;19917;-70
2022/05/18 00:07:46;;;;;;;;;;;;;;;12.41;100.00;96375.03;1035255;28;19917;-71
2022/05/18 00:08:16;;;;;;;;;;;;;;;12.38;100.00;96376.34;1029500;28;19937;-70
2022/05/18 00:08:46;;;;;;;;;;;;;;;12.36;100.00;96382.91;1031229;28;19918;-70
2022/05/18 00:09:17;;;;;;;;;;;;;;;12.36;100.00;96380.28;1031584;28;19976;-70
2022/05/18 00:09:49;;;;;;;;;;;;;;;12.34;100.00;96380.53;1034507;28;19983;-71
2022/05/18 00:10:19;;;;;;;;;;;;;;;12.33;100.00;96373.69;1035002;28;20036;-70
2022/05/18 00:10:49;;;;;;;;;;;;;;;12.32;100.00;96382.63;1035526;28;20472;-70
2022/05/18 00:11:20;;;;;;;;;;;;;;;12.32;100.00;96377.38;1035152;28;19913;-70
2022/05/18 00:11:51;;;;;;;;;;;;;;;12.31;100.00;96375.78;1035203;28;20453;-70
2022/05/18 00:12:21;;;;;;;;;;;;;;;12.31;100.00;96374.97;1030743;28;20305;-71
2022/05/18 00:12:51;;;;;;;;;;;;;;;12.30;100.00;96376.03;1031235;28;19922;-70
2022/05/18 00:13:21;;;;;;;;;;;;;;;12.30;100.00;96376.81;1034963;28;20294;-70
2022/05/18 00:13:52;;;;;;;;;;;;;;;12.29;100.00;96367.34;1039324;28;19917;-71
2022/05/18 00:14:23;;;;;;;;;;;;;;;12.30;100.00;96378.66;1034962;28;19910;-70
2022/05/18 00:14:53;;;;;;;;;;;;;;;12.31;100.00;96380.25;1036296;28;20044;-70
2022/05/18 00:15:23;;;;;;;;;;;;;;;12.29;100.00;96380.50;1035034;28;19917;-70
2022/05/18 00:15:54;;;;;;;;;;;;;;;12.31;100.00;96382.88;1031209;28;19914;-70
2022/05/18 00:16:24;;;;;;;;;;;;;;;12.32;100.00;96382.63;1026636;28;19922;-69
2022/05/18 00:16:59;;;;;;;;;;;;;;;12.37;100.00;96385.28;1026993;28;20056;-69
2022/05/18 00:17:30;;;;;;;;;;;;;;;12.39;100.00;96390.28;1027773;28;19928;-70
2022/05/18 00:18:01;;;;;;;;;;;;;;;12.39;100.00;96388.44;1031047;28;19925;-70
2022/05/18 00:18:31;;;;;;;;;;;;;;;12.36;100.00;96393.44;1034708;28;19985;-70
2022/05/18 00:19:01;;;;;;;;;;;;;;;12.34;100.00;96385.00;1031454;28;19940;-70
2022/05/18 00:19:32;;;;;;;;;;;;;;;12.35;100.00;96387.38;1027042;28;19982;-70
2022/05/18 00:20:02;;;;;;;;;;;;;;;12.37;100.00;96385.28;1030483;28;19981;-70
2022/05/18 00:20:32;;;;;;;;;;;;;;;12.34;100.00;96385.81;1031053;28;19928;-70
2022/05/18 00:21:04;;;;;;;;;;;;;;;12.34;100.00;96385.00;1035251;28;19918;-70
2022/05/18 00:21:34;;;;;;;;;;;;;;;12.32;100.00;96385.25;1034996;28;19918;-70
2022/05/18 00:22:04;;;;;;;;;;;;;;;12.35;100.00;96382.13;1035194;28;19918;-70
2022/05/18 00:22:42;;;;;;;;;;;;;;;12.35;100.00;96387.38;1034968;28;19924;-69
2022/05/18 00:23:12;;;;;;;;;;;;;;;12.47;100.00;96393.22;1036305;28;20421;-70
2022/05/18 00:23:44;;;;;;;;;;;;;;;12.50;100.00;96390.06;1039072;28;19952;-70
2022/05/18 00:24:14;;;;;;;;;;;;;;;12.47;100.00;96395.88;1040484;28;19917;-70
2022/05/18 00:24:45;;;;;;;;;;;;;;;12.46;100.00;96389.00;1043219;28;19920;-70
2022/05/18 00:25:15;;;;;;;;;;;;;;;12.47;100.00;96390.59;1043452;28;19913;-71
2022/05/18 00:25:46;;;;;;;;;;;;;;;12.48;100.00;96389.53;1040400;28;20493;-69
2022/05/18 00:26:16;;;;;;;;;;;;;;;12.46;100.00;96391.63;1039131;28;19920;-70
2022/05/18 00:26:46;;;;;;;;;;;;;;;12.44;100.00;96391.09;1039118;28;20286;-69
2022/05/18 00:27:17;;;;;;;;;;;;;;;12.42;100.00;96385.31;1034938;28;19909;-69
2022/05/18 00:27:47;;;;;;;;;;;;;;;12.40;100.00;96384.75;1031230;28;19914;-69
2022/05/18 00:28:18;;;;;;;;;;;;;;;12.37;100.00;96384.47;1031124;28;20368;-69
2022/05/18 00:28:48;;;;;;;;;;;;;;;12.35;100.00;96390.00;1035209;28;19909;-70
2022/05/18 00:29:18;;;;;;;;;;;;;;;12.35;100.00;96386.59;1038942;28;19910;-70
2022/05/18 00:29:49;;;;;;;;;;;;;;;12.31;100.00;96388.94;1034597;28;19921;-69
2022/05/18 00:30:19;;;;;;;;;;;;;;;12.30;100.00;96386.56;1039253;28;19922;-69
2022/05/18 00:30:53;;;;;;;;;;;;;;;12.27;100.00;96388.69;1035024;28;19910;-70
2022/05/18 00:31:23;;;;;;;;;;;;;;;12.25;100.00;96388.13;1027367;28;19997;-69
2022/05/18 00:31:56;;;;;;;;;;;;;;;12.24;100.00;96385.78;1031137;28;19918;-70
2022/05/18 00:32:26;;;;;;;;;;;;;;;12.24;100.00;96380.50;1030539;28;20370;-70
2022/05/18 00:32:57;;;;;;;;;;;;;;;12.22;100.00;96388.63;1031881;28;19921;-69
2022/05/18 00:33:27;;;;;;;;;;;;;;;12.19;100.00;96385.72;1043320;28;19905;-72
2022/05/18 00:33:57;;;;;;;;;;;;;;;12.18;100.00;96384.16;1039118;28;19901;-70
2022/05/18 00:34:28;;;;;;;;;;;;;;;12.15;100.00;96382.81;1035110;28;19909;-70
2022/05/18 00:34:58;;;;;;;;;;;;;;;12.14;100.00;96381.25;1035032;28;20449;-67
2022/05/18 00:35:28;;;;;;;;;;;;;;;12.15;100.00;96382.81;1031058;28;19921;-69
2022/05/18 00:35:59;;;;;;;;;;;;;;;12.17;100.00;96385.19;1033775;28;19998;-69
2022/05/18 00:36:29;;;;;;;;;;;;;;;12.13;100.00;96387.53;1039233;28;20661;-69
2022/05/18 00:36:59;;;;;;;;;;;;;;;12.12;100.00;96387.81;1035084;28;19956;-69
2022/05/18 00:37:30;;;;;;;;;;;;;;;12.12;100.00;96385.19;1038959;28;19921;-70
2022/05/18 00:38:00;;;;;;;;;;;;;;;12.11;100.00;96386.22;1039310;28;20500;-71
2022/05/18 00:38:30;;;;;;;;;;;;;;;12.09;100.00;96383.84;1043350;28;19908;-70
2022/05/18 00:39:01;;;;;;;;;;;;;;;12.09;100.00;96388.31;1043388;28;19946;-70
2022/05/18 00:39:32;;;;;;;;;;;;;;;12.07;100.00;96390.41;1043152;28;20408;-69
2022/05/18 00:40:02;;;;;;;;;;;;;;;12.07;100.00;96391.19;1038513;28;19910;-70
2022/05/18 00:40:33;;;;;;;;;;;;;;;12.05;100.00;96388.03;1033526;28;19916;-70
2022/05/18 00:41:03;;;;;;;;;;;;;;;12.06;100.00;96388.81;1029702;28;19941;-72
2022/05/18 00:41:33;;;;;;;;;;;;;;;12.05;100.00;96389.88;1030603;28;20403;-70
2022/05/18 00:42:04;;;;;;;;;;;;;;;12.05;100.00;96388.03;1034935;28;19909;-69
2022/05/18 00:42:34;;;;;;;;;;;;;;;12.05;100.00;96389.88;1033352;28;19914;-72
2022/05/18 00:43:04;;;;;;;;;;;;;;;12.07;100.00;96390.41;1034916;28;19920;-70
2022/05/18 00:43:36;;;;;;;;;;;;;;;12.07;100.00;96391.19;1031156;28;19914;-69
2022/05/18 00:44:06;;;;;;;;;;;;;;;12.08;100.00;96392.78;1035322;28;20435;-70
2022/05/18 00:44:37;;;;;;;;;;;;;;;12.07;100.00;96390.41;1034789;28;19913;-69
2022/05/18 00:45:07;;;;;;;;;;;;;;;12.10;100.00;96395.94;1035476;28;19926;-70
2022/05/18 00:45:38;;;;;;;;;;;;;;;12.10;100.00;96395.16;1038928;28;19920;-70
2022/05/18 00:46:09;;;;;;;;;;;;;;;12.10;100.00;96397.78;1039010;28;19913;-70
2022/05/18 00:46:40;;;;;;;;;;;;;;;12.12;100.00;96385.19;1039168;28;19924;-72
2022/05/18 00:47:10;;;;;;;;;;;;;;;12.12;100.00;96382.53;1035093;28;20363;-70
2022/05/18 00:47:41;;;;;;;;;;;;;;;12.09;100.00;96394.38;1034884;28;19921;-70
2022/05/18 00:48:11;;;;;;;;;;;;;;;12.06;100.00;96392.25;1031053;28;19913;-70
2022/05/18 00:48:41;;;;;;;;;;;;;;;12.03;100.00;96396.16;1030897;28;20004;-70
2022/05/18 00:49:12;;;;;;;;;;;;;;;12.02;100.00;96391.97;1035315;28;20024;-70
2022/05/18 00:49:45;;;;;;;;;;;;;;;12.01;100.00;96392.22;1037809;28;19946;-70
2022/05/18 00:50:15;;;;;;;;;;;;;;;12.00;100.00;96386.19;1039162;28;20294;-70
2022/05/18 00:50:45;;;;;;;;;;;;;;;12.02;100.00;96389.34;1039225;28;19917;-70
2022/05/18 00:51:26;;;;;;;;;;;;;;;11.99;100.00;96389.84;1038869;28;20901;-69
2022/05/18 00:51:56;;;;;;;;;;;;;;;11.97;100.00;96389.31;1031036;28;19906;-69
2022/05/18 00:52:28;;;;;;;;;;;;;;;11.96;100.00;96385.09;1027032;28;19914;-70
2022/05/18 00:53:03;;;;;;;;;;;;;;;11.95;100.00;96386.13;1024497;28;19915;-69
2022/05/18 00:53:41;;;;;;;;;;;;;;;11.94;100.00;96389.03;1028718;28;19990;-70
2022/05/18 00:54:13;;;;;;;;;;;;;;;11.94;100.00;96391.66;1037082;28;19917;-71
2022/05/18 00:54:43;;;;;;;;;;;;;;;11.93;100.00;96390.84;1034918;28;19945;-69
2022/05/18 00:55:14;;;;;;;;;;;;;;;11.92;100.00;96389.28;1035147;28;19912;-70
2022/05/18 00:55:46;;;;;;;;;;;;;;;11.92;100.00;96393.75;1026874;28;19906;-71
2022/05/18 00:56:19;;;;;;;;;;;;;;;11.90;100.00;96391.34;1027230;28;19913;-71
2022/05/18 00:57:16;;;;;;;;;;;;;;;11.89;100.00;96391.63;1034337;28;20714;-70
2022/05/18 00:57:50;;;;;;;;;;;;;;;11.87;100.00;96388.44;1034684;28;19910;-70
2022/05/18 00:58:41;;;;;;;;;;;;;;;11.86;100.00;96392.13;1028893;28;19917;-74
2022/05/18 00:59:15;;;;;;;;;;;;;;;11.85;100.00;96393.97;1034625;28;20401;-70
2022/05/18 00:59:49;;;;;;;;;;;;;;;11.83;100.00;96392.59;1030133;28;19921;-71
2022/05/18 01:00:20;;;;;;;;;;;;;;;11.83;100.00;96396.03;1034502;28;20284;-70
2022/05/18 01:00:50;;;;;;;;;;;;;;;11.85;100.00;96393.97;1035197;28;19914;-70
2022/05/18 01:01:23;;;;;;;;;;;;;;;11.90;100.00;96399.25;1031427;28;19906;-71
2022/05/18 01:01:55;;;;;;;;;;;;;;;11.89;100.00;96386.38;1031398;28;20649;-70
2022/05/18 01:02:33;;;;;;;;;;;;;;;11.89;100.00;96391.63;1030580;28;19910;-70
2022/05/18 01:03:06;;;;;;;;;;;;;;;11.86;100.00;96392.91;1024621;28;19907;-70
2022/05/18 01:03:40;;;;;;;;;;;;;;;11.87;100.00;96391.91;1024837;28;19910;-71
2022/05/18 01:04:10;;;;;;;;;;;;;;;11.91;100.00;96392.19;1028856;28;19913;-71
2022/05/18 01:04:41;;;;;;;;;;;;;;;11.99;100.00;96389.84;1028275;28;19910;-70
2022/05/18 01:05:14;;;;;;;;;;;;;;;12.03;100.00;96395.38;1035073;28;20458;-70
2022/05/18 01:05:46;;;;;;;;;;;;;;;11.88;100.00;96372.44;1031029;28;19913;-69
2022/05/18 01:06:16;;;;;;;;;;;;;;;12.06;100.00;96391.44;1031450;28;19910;-70
2022/05/18 01:07:02;;;;;;;;;;;;;;;12.06;100.00;96391.44;1038527;28;19944;-71
2022/05/18 01:07:34;;;;;;;;;;;;;;;12.01;100.00;96393.03;1030888;28;20008;-70
2022/05/18 01:08:05;;;;;;;;;;;;;;;11.97;100.00;96391.94;1034601;28;19916;-70
2022/05/18 01:08:53;;;;;;;;;;;;;;;11.96;100.00;96395.59;1038923;28;19967;-71
2022/05/18 01:09:32;;;;;;;;;;;;;;;11.94;100.00;96400.34;1034856;28;19921;-70
2022/05/18 01:10:02;;;;;;;;;;;;;;;11.92;100.00;96405.06;1026291;28;19949;-70
2022/05/18 01:10:33;;;;;;;;;;;;;;;11.91;100.00;96398.22;1030253;28;19918;-69
2022/05/18 01:11:07;;;;;;;;;;;;;;;11.87;100.00;96396.34;1032809;28;19914;-72
2022/05/18 01:11:39;;;;;;;;;;;;;;;11.86;100.00;96400.03;1035755;28;19913;-70
2022/05/18 01:12:10;;;;;;;;;;;;;;;11.84;100.00;96397.66;1039217;28;19991;-70
2022/05/18 01:12:40;;;;;;;;;;;;;;;11.86;100.00;96395.56;1034733;28;20461;-70
2022/05/18 01:13:12;;;;;;;;;;;;;;;11.84;100.00;96399.44;1030472;28;20028;-70
2022/05/18 01:13:42;;;;;;;;;;;;;;;11.82;100.00;96399.72;1027342;28;20411;-71
2022/05/18 01:14:13;;;;;;;;;;;;;;;11.79;100.00;96394.94;1031213;28;19920;-71
2022/05/18 01:14:45;;;;;;;;;;;;;;;11.77;100.00;96395.22;1035062;28;19917;-70
2022/05/18 01:15:16;;;;;;;;;;;;;;;11.75;100.00;96399.13;1043467;28;20034;-70
2022/05/18 01:15:46;;;;;;;;;;;;;;;11.74;100.00;96398.34;1034904;28;19964;-70
2022/05/18 01:16:16;;;;;;;;;;;;;;;11.74;100.00;96397.56;1035138;28;19956;-70
2022/05/18 01:16:47;;;;;;;;;;;;;;;11.73;100.00;96395.97;1034565;28;19917;-70
2022/05/18 01:17:21;;;;;;;;;;;;;;;11.70;100.00;96397.28;1026955;28;19945;-70
2022/05/18 01:17:53;;;;;;;;;;;;;;;11.70;100.00;96392.03;1031077;28;20779;-70
2022/05/18 01:18:23;;;;;;;;;;;;;;;11.69;100.00;96392.25;1032742;28;20029;-70
2022/05/18 01:18:54;;;;;;;;;;;;;;;11.68;100.00;96395.94;1035590;28;20056;-71
2022/05/18 01:19:25;;;;;;;;;;;;;;;11.66;100.00;96401.44;1039242;28;20004;-70
2022/05/18 01:19:59;;;;;;;;;;;;;;;11.65;100.00;96399.06;1038653;28;20003;-71
2022/05/18 01:20:30;;;;;;;;;;;;;;;11.66;100.00;96396.19;1039285;28;20442;-71
2022/05/18 01:21:00;;;;;;;;;;;;;;;11.71;100.00;96398.06;1038868;28;20015;-70
2022/05/18 01:21:34;;;;;;;;;;;;;;;11.72;100.00;96399.66;1039082;28;19939;-70
2022/05/18 01:22:04;;;;;;;;;;;;;;;11.75;100.00;96409.66;1035205;28;19957;-70
2022/05/18 01:22:53;;;;;;;;;;;;;;;11.74;100.00;96402.81;1035410;28;19996;-70
2022/05/18 01:23:31;;;;;;;;;;;;;;;11.70;100.00;96406.97;1039110;28;19920;-70
2022/05/18 01:24:31;;;;;;;;;;;;;;;11.67;100.00;96402.22;1036606;28;20008;-70
2022/05/18 01:25:07;;;;;;;;;;;;;;;11.66;100.00;96400.66;1030426;28;19925;-70
2022/05/18 01:25:43;;;;;;;;;;;;;;;11.65;100.00;96397.22;1038374;28;19921;-70
2022/05/18 01:26:15;;;;;;;;;;;;;;;11.65;100.00;96402.50;1039193;28;19960;-70
2022/05/18 01:26:46;;;;;;;;;;;;;;;11.64;100.00;96405.38;1034694;28;20525;-70
2022/05/18 01:27:16;;;;;;;;;;;;;;;11.61;100.00;96398.78;1030874;28;19973;-71
2022/05/18 01:27:47;;;;;;;;;;;;;;;11.60;100.00;96405.06;1030906;28;19909;-70
2022/05/18 01:28:17;;;;;;;;;;;;;;;11.59;100.00;96398.22;1030525;28;20471;-70
2022/05/18 01:28:55;;;;;;;;;;;;;;;11.59;100.00;96405.34;1035108;28;19922;-70
2022/05/18 01:29:25;;;;;;;;;;;;;;;11.57;100.00;96398.50;1038784;28;19913;-70
2022/05/18 01:29:55;;;;;;;;;;;;;;;11.55;100.00;96397.94;1035511;28;19917;-71
2022/05/18 01:30:26;;;;;;;;;;;;;;;11.55;100.00;96399.78;1033939;28;20693;-71
2022/05/18 01:30:57;;;;;;;;;;;;;;;11.54;100.00;96400.84;1034168;28;20008;-70
2022/05/18 01:32:05;;;;;;;;;;;;;;;11.53;100.00;96400.03;1035170;28;19924;-70
2022/05/18 01:32:40;;;;;;;;;;;;;;;11.50;100.00;96397.94;1031455;28;20497;-71
2022/05/18 01:33:10;;;;;;;;;;;;;;;11.49;100.00;96401.59;1030826;28;19910;-69
2022/05/18 01:33:41;;;;;;;;;;;;;;;11.47;100.00;96395.81;1030317;28;20779;-70
2022/05/18 01:34:11;;;;;;;;;;;;;;;11.47;100.00;96408.16;1030748;28;19917;-69
2022/05/18 01:34:42;;;;;;;;;;;;;;;11.45;100.00;96397.09;1030642;28;19914;-71
2022/05/18 01:35:13;;;;;;;;;;;;;;;11.45;100.00;96407.59;1030696;28;19968;-70
2022/05/18 01:35:44;;;;;;;;;;;;;;;11.44;100.00;96406.81;1027345;28;20306;-70
2022/05/18 01:36:17;;;;;;;;;;;;;;;11.42;100.00;96406.25;1026638;28;19922;-71
2022/05/18 01:36:47;;;;;;;;;;;;;;;11.41;100.00;96404.69;1027449;28;20288;-70
2022/05/18 01:37:17;;;;;;;;;;;;;;;11.41;100.00;96407.31;1031022;28;19968;-70
2022/05/18 01:37:50;;;;;;;;;;;;;;;11.41;100.00;96409.94;1030843;28;19918;-70
2022/05/18 01:38:21;;;;;;;;;;;;;;;11.41;100.00;96402.06;1032074;28;20376;-71
2022/05/18 01:38:51;;;;;;;;;;;;;;;11.40;100.00;96413.63;1038979;28;19945;-69
2022/05/18 01:39:23;;;;;;;;;;;;;;;11.37;100.00;96406.22;1038812;28;19921;-70
2022/05/18 01:39:56;;;;;;;;;;;;;;;11.37;100.00;96408.03;1030836;28;19974;-69
2022/05/18 01:40:32;;;;;;;;;;;;;;;11.36;100.00;96412.50;1028584;28;19914;-70
2022/05/18 01:41:08;;;;;;;;;;;;;;;11.35;100.00;96405.69;1030922;28;19920;-70
2022/05/18 01:41:43;;;;;;;;;;;;;;;11.33;100.00;96408.56;1032650;28;19960;-70
2022/05/18 01:42:31;;;;;;;;;;;;;;;11.33;100.00;96407.75;1037890;28;19914;-71
2022/05/18 01:43:05;;;;;;;;;;;;;;;11.32;100.00;96412.22;1043008;28;20568;-70
2022/05/18 01:43:36;;;;;;;;;;;;;;;11.31;100.00;96404.59;1039216;28;19913;-70
2022/05/18 01:44:07;;;;;;;;;;;;;;;11.31;100.00;96404.59;1038707;28;19913;-70
2022/05/18 01:44:37;;;;;;;;;;;;;;;11.31;100.00;96408.03;1034687;28;19917;-69
2022/05/18 01:45:08;;;;;;;;;;;;;;;11.33;100.00;96408.56;1035322;28;19926;-70
2022/05/18 01:45:38;;;;;;;;;;;;;;;11.36;100.00;96407.25;1034725;28;19979;-70
2022/05/18 01:46:09;;;;;;;;;;;;;;;11.35;100.00;96410.16;1034652;28;19921;-70
2022/05/18 01:46:39;;;;;;;;;;;;;;;11.32;100.00;96411.44;1039108;28;19917;-69
2022/05/18 01:47:10;;;;;;;;;;;;;;;11.31;100.00;96412.47;1034994;28;20363;-71
2022/05/18 01:47:40;;;;;;;;;;;;;;;11.15;100.00;96387.91;1038882;28;19921;-71
2022/05/18 01:48:12;;;;;;;;;;;;;;;11.31;100.00;96412.47;1034868;28;19913;-71
2022/05/18 01:48:47;;;;;;;;;;;;;;;11.30;100.00;96413.50;1034935;28;20020;-70
2022/05/18 01:49:17;;;;;;;;;;;;;;;11.29;100.00;96412.72;1030865;28;19910;-70
2022/05/18 01:49:47;;;;;;;;;;;;;;;11.30;100.00;96414.31;1030883;28;20614;-71
2022/05/18 01:50:20;;;;;;;;;;;;;;;11.28;100.00;96410.34;1034717;28;19944;-71
2022/05/18 01:50:50;;;;;;;;;;;;;;;11.27;100.00;96414.03;1031485;28;19910;-70
2022/05/18 01:51:33;;;;;;;;;;;;;;;11.26;100.00;96413.22;1034254;28;19917;-70
2022/05/18 01:52:03;;;;;;;;;;;;;;;11.25;100.00;96413.47;1039006;28;19913;-69
2022/05/18 01:52:34;;;;;;;;;;;;;;;11.24;100.00;96415.31;1034941;28;19918;-70
2022/05/18 01:53:04;;;;;;;;;;;;;;;11.27;100.00;96416.66;1038763;28;19913;-70
2022/05/18 01:53:34;;;;;;;;;;;;;;;11.24;100.00;96414.53;1035862;28;19914;-70
2022/05/18 01:54:05;;;;;;;;;;;;;;;11.23;100.00;96418.19;1030340;28;20709;-69
2022/05/18 01:54:38;;;;;;;;;;;;;;;11.22;100.00;96413.97;1034765;28;19917;-70
2022/05/18 01:55:09;;;;;;;;;;;;;;;11.21;100.00;96412.41;1036235;28;19953;-70
2022/05/18 01:55:39;;;;;;;;;;;;;;;11.20;100.00;96416.03;1039685;28;19915;-69
2022/05/18 01:56:10;;;;;;;;;;;;;;;11.20;100.00;96416.03;1031380;28;19916;-70
2022/05/18 01:56:40;;;;;;;;;;;;;;;11.20;100.00;96410.78;1027097;28;19922;-70
2022/05/18 01:57:10;;;;;;;;;;;;;;;11.19;100.00;96409.22;1031502;28;19918;-70
2022/05/18 01:57:41;;;;;;;;;;;;;;;11.18;100.00;96415.53;1031733;28;20698;-69
2022/05/18 01:58:11;;;;;;;;;;;;;;;11.17;100.00;96406.06;1039366;28;20603;-71
2022/05/18 01:58:42;;;;;;;;;;;;;;;11.15;100.00;96411.56;1043460;28;19917;-70
2022/05/18 01:59:12;;;;;;;;;;;;;;;11.16;100.00;96412.34;1039531;28;19992;-71
2022/05/18 01:59:42;;;;;;;;;;;;;;;11.16;100.00;96412.34;1038518;28;19948;-70
2022/05/18 02:00:16;;;;;;;;;;;;;;;11.16;100.00;96412.34;1035492;28;19921;-71
2022/05/18 02:00:49;;;;;;;;;;;;;;;11.14;100.00;96415.22;1031290;28;19925;-71
2022/05/18 02:01:20;;;;;;;;;;;;;;;11.14;100.00;96414.44;1032079;28;19948;-70
2022/05/18 02:01:50;;;;;;;;;;;;;;;11.12;100.00;96411.25;1036469;28;19917;-73
2022/05/18 02:02:22;;;;;;;;;;;;;;;11.11;100.00;96415.72;1039974;28;19924;-71
2022/05/18 02:02:56;;;;;;;;;;;;;;;11.09;100.00;96415.94;1043500;28;20301;-70
2022/05/18 02:03:26;;;;;;;;;;;;;;;11.10;100.00;96414.16;1039598;28;19917;-70
2022/05/18 02:03:56;;;;;;;;;;;;;;;11.06;100.00;96419.06;1035344;28;19981;-70
2022/05/18 02:04:26;;;;;;;;;;;;;;;11.05;100.00;96428.00;1035587;28;20010;-71
2022/05/18 02:04:57;;;;;;;;;;;;;;;11.07;100.00;96420.69;1035135;28;20063;-69
2022/05/18 02:05:27;;;;;;;;;;;;;;;11.05;100.00;96425.38;1035718;28;20000;-70
2022/05/18 02:05:57;;;;;;;;;;;;;;;11.06;100.00;96426.94;1039548;28;20408;-69
2022/05/18 02:06:29;;;;;;;;;;;;;;;11.08;100.00;96430.13;1039352;28;20263;-70
2022/05/18 02:07:00;;;;;;;;;;;;;;;11.07;100.00;96425.94;1039831;28;19943;-70
2022/05/18 02:07:30;;;;;;;;;;;;;;;11.07;100.00;96431.19;1044004;28;20324;-70
2022/05/18 02:08:01;;;;;;;;;;;;;;;11.08;100.00;96426.72;1043804;28;20386;-70
2022/05/18 02:08:31;;;;;;;;;;;;;;;11.07;100.00;96430.41;1039776;28;20321;-71
2022/05/18 02:09:02;;;;;;;;;;;;;;;11.06;100.00;96429.59;1039375;28;20426;-70
2022/05/18 02:09:35;;;;;;;;;;;;;;;11.04;100.00;96431.69;1035392;28;19905;-70
2022/05/18 02:10:06;;;;;;;;;;;;;;;11.04;100.00;96430.88;1038838;28;19913;-70
2022/05/18 02:10:36;;;;;;;;;;;;;;;11.02;100.00;96431.13;1037908;28;19929;-70
2022/05/18 02:11:10;;;;;;;;;;;;;;;11.02;100.00;96423.25;1036597;28;20663;-70
2022/05/18 02:11:40;;;;;;;;;;;;;;;11.02;100.00;96428.50;1039490;28;19918;-69
2022/05/18 02:12:11;;;;;;;;;;;;;;;11.05;100.00;96430.63;1039153;28;20293;-70
2022/05/18 02:12:42;;;;;;;;;;;;;;;11.08;100.00;96427.50;1039753;28;19913;-69
2022/05/18 02:13:12;;;;;;;;;;;;;;;11.06;100.00;96431.41;1031393;28;20379;-70
2022/05/18 02:13:42;;;;;;;;;;;;;;;11.04;100.00;96429.06;1035689;28;19988;-70
2022/05/18 02:14:16;;;;;;;;;;;;;;;11.06;100.00;96432.22;1035604;28;20462;-70
2022/05/18 02:14:47;;;;;;;;;;;;;;;11.10;100.00;96440.41;1036480;28;19921;-70
2022/05/18 02:15:17;;;;;;;;;;;;;;;11.11;100.00;96441.19;1043810;28;19917;-69
2022/05/18 02:15:48;;;;;;;;;;;;;;;11.11;100.00;96436.72;1039694;28;19909;-69
2022/05/18 02:16:18;;;;;;;;;;;;;;;11.15;100.00;96439.66;1039623;28;20363;-70
2022/05/18 02:16:49;;;;;;;;;;;;;;;11.13;100.00;96431.22;1039733;28;20659;-71
2022/05/18 02:17:19;;;;;;;;;;;;;;;11.12;100.00;96433.06;1039484;28;19920;-70
2022/05/18 02:17:51;;;;;;;;;;;;;;;11.13;100.00;96431.22;1043991;28;19913;-71
2022/05/18 02:18:22;;;;;;;;;;;;;;;11.12;100.00;96430.44;1043894;28;19905;-70
2022/05/18 02:18:52;;;;;;;;;;;;;;;11.11;100.00;96430.69;1035528;28;19906;-70
2022/05/18 02:19:23;;;;;;;;;;;;;;;11.11;100.00;96431.47;1035506;28;20627;-70
2022/05/18 02:19:54;;;;;;;;;;;;;;;11.09;100.00;96434.34;1026579;28;19932;-70
2022/05/18 02:20:25;;;;;;;;;;;;;;;11.06;100.00;96428.78;1023816;28;19961;-70
2022/05/18 02:20:55;;;;;;;;;;;;;;;11.05;100.00;96422.75;1027831;28;19910;-71
2022/05/18 02:21:25;;;;;;;;;;;;;;;11.05;100.00;96427.22;1023762;28;20392;-71
2022/05/18 02:21:56;;;;;;;;;;;;;;;11.08;100.00;96429.34;1031730;28;19917;-71
2022/05/18 02:22:26;;;;;;;;;;;;;;;11.05;100.00;96433.25;1031520;28;19949;-71
2022/05/18 02:22:59;;;;;;;;;;;;;;;11.06;100.00;96432.22;1031906;28;19912;-70
2022/05/18 02:23:29;;;;;;;;;;;;;;;11.07;100.00;96431.19;1035491;28;19925;-71
2022/05/18 02:24:00;;;;;;;;;;;;;;;11.05;100.00;96433.25;1038213;28;19909;-70
2022/05/18 02:24:30;;;;;;;;;;;;;;;11.02;100.00;96428.50;1040025;28;20015;-70
2022/05/18 02:25:00;;;;;;;;;;;;;;;11.01;100.00;96421.66;1043860;28;19963;-70
2022/05/18 02:25:32;;;;;;;;;;;;;;;11.00;100.00;96425.34;1042824;28;19917;-69
2022/05/18 02:26:07;;;;;;;;;;;;;;;10.99;100.00;96426.38;1035817;28;19905;-70
2022/05/18 02:26:38;;;;;;;;;;;;;;;10.98;100.00;96427.41;1035538;28;20009;-70
2022/05/18 02:27:11;;;;;;;;;;;;;;;11.00;100.00;96429.78;1035497;28;19928;-70
2022/05/18 02:27:41;;;;;;;;;;;;;;;10.97;100.00;96425.84;1032462;28;19969;-71
2022/05/18 02:28:12;;;;;;;;;;;;;;;11.03;100.00;96424.03;1036158;28;20322;-71
2022/05/18 02:28:43;;;;;;;;;;;;;;;11.05;100.00;96428.00;1035626;28;19910;-71
2022/05/18 02:29:13;;;;;;;;;;;;;;;11.06;100.00;96434.84;1031525;28;20394;-70
2022/05/18 02:29:44;;;;;;;;;;;;;;;11.15;100.00;96435.19;1034652;28;19914;-69
2022/05/18 02:30:14;;;;;;;;;;;;;;;11.17;100.00;96435.75;1035582;28;19917;-69
2022/05/18 02:30:44;;;;;;;;;;;;;;;11.17;100.00;96437.59;1037222;28;19920;-70
2022/05/18 02:31:14;;;;;;;;;;;;;;;11.17;100.00;96435.75;1043840;28;19913;-70
2022/05/18 02:31:45;;;;;;;;;;;;;;;11.17;100.00;96429.72;1039669;28;20019;-70
2022/05/18 02:32:15;;;;;;;;;;;;;;;11.15;100.00;96434.41;1035378;28;19910;-69
2022/05/18 02:32:45;;;;;;;;;;;;;;;11.14;100.00;96430.19;1027517;28;19989;-70
2022/05/18 02:33:16;;;;;;;;;;;;;;;11.12;100.00;96430.44;1027534;28;19968;-70
2022/05/18 02:33:46;;;;;;;;;;;;;;;11.12;100.00;96427.81;1031449;28;20383;-71
2022/05/18 02:34:16;;;;;;;;;;;;;;;11.11;100.00;96428.06;1031433;28;19914;-70
2022/05/18 02:34:47;;;;;;;;;;;;;;;11.10;100.00;96429.91;1031395;28;19910;-70
2022/05/18 02:35:17;;;;;;;;;;;;;;;11.10;100.00;96429.91;1035471;28;19910;-69
2022/05/18 02:35:47;;;;;;;;;;;;;;;11.08;100.00;96432.75;1034287;28;19910;-70
2022/05/18 02:36:20;;;;;;;;;;;;;;;11.08;100.00;96438.00;1035327;28;19910;-70
2022/05/18 02:36:50;;;;;;;;;;;;;;;11.09;100.00;96433.56;1035992;28;19917;-70
2022/05/18 02:37:20;;;;;;;;;;;;;;;11.09;100.00;96430.94;1039605;28;20524;-69
2022/05/18 02:37:51;;;;;;;;;;;;;;;11.08;100.00;96435.38;1035858;28;19909;-70
2022/05/18 02:38:21;;;;;;;;;;;;;;;11.06;100.00;96434.84;1035528;28;19916;-70
2022/05/18 02:38:52;;;;;;;;;;;;;;;11.05;100.00;96433.25;1035491;28;20454;-70
2022/05/18 02:39:22;;;;;;;;;;;;;;;11.05;100.00;96435.09;1035351;28;19982;-69
2022/05/18 02:39:56;;;;;;;;;;;;;;;11.00;100.00;96435.84;1038941;28;20568;-70
2022/05/18 02:40:28;;;;;;;;;;;;;;;10.99;100.00;96433.44;1038254;28;19909;-71
2022/05/18 02:40:59;;;;;;;;;;;;;;;10.97;100.00;96428.47;1038294;28;19917;-70
2022/05/18 02:41:29;;;;;;;;;;;;;;;10.95;100.00;96425.28;1035595;28;19944;-71
2022/05/18 02:42:01;;;;;;;;;;;;;;;10.95;100.00;96433.16;1031332;28;20391;-70
2022/05/18 02:42:31;;;;;;;;;;;;;;;10.91;100.00;96429.44;1031534;28;19921;-70
2022/05/18 02:43:01;;;;;;;;;;;;;;;10.91;100.00;96428.66;1035639;28;20322;-70
2022/05/18 02:43:31;;;;;;;;;;;;;;;10.87;100.00;96432.81;1035816;28;19938;-71